Time;durP1;ratioP1;P1;durP2;ratioP2;P2;SDS_P1;SDS_P2;PMS_P1;PMS_P2;Temp;Humidity;BMP_temperature;BMP_pressure;BME280_temperature;BME280_humidity;BME280_pressure;Samples;Min_cycle;Max_cycle;Signal;HPM_P1;HPM_P2
2022/06/16 00:00:15;;;;;;;12.88;7.50;;;;;;;14.63;57.18;98730.50;5079029;28;20031;-73
2022/06/16 00:02:42;;;;;;;11.55;7.65;;;;;;;14.50;57.44;98729.47;5083062;28;20031;-72
2022/06/16 00:05:10;;;;;;;14.07;7.68;;;;;;;14.39;57.29;98720.66;5085083;28;20052;-78
2022/06/16 00:07:36;;;;;;;13.18;7.13;;;;;;;14.33;57.67;98719.13;5081224;28;20065;-79
2022/06/16 00:10:03;;;;;;;13.43;8.13;;;;;;;14.30;57.95;98723.31;5079035;28;20070;-77
2022/06/16 00:12:32;;;;;;;12.30;7.75;;;;;;;14.33;58.18;98716.38;5083487;28;20020;-75
2022/06/16 00:14:58;;;;;;;10.82;7.57;;;;;;;14.29;58.22;98710.66;5079536;28;20035;-74
2022/06/16 00:17:24;;;;;;;12.05;7.15;;;;;;;14.33;58.20;98710.88;5078584;28;20115;-75
2022/06/16 00:19:49;;;;;;;13.88;7.45;;;;;;;14.35;58.38;98714.91;5080756;28;20100;-74
2022/06/16 00:22:15;;;;;;;12.90;7.75;;;;;;;14.36;58.18;98707.47;5079663;28;20062;-75
2022/06/16 00:24:40;;;;;;;13.10;7.10;;;;;;;14.37;58.41;98706.34;5074535;28;20013;-74
2022/06/16 00:27:06;;;;;;;10.32;6.85;;;;;;;14.38;58.46;98703.25;5075273;28;20479;-75
2022/06/16 00:29:33;;;;;;;13.32;7.18;;;;;;;14.39;58.80;98707.66;5077549;28;20031;-74
2022/06/16 00:31:59;;;;;;;10.98;7.70;;;;;;;14.37;58.65;98711.88;5078686;28;20032;-75
2022/06/16 00:34:24;;;;;;;11.60;7.07;;;;;;;14.34;58.65;98706.97;5078484;28;20028;-74
2022/06/16 00:36:51;;;;;;;14.48;7.55;;;;;;;14.32;58.57;98693.47;5080180;28;20107;-75
2022/06/16 00:39:17;;;;;;;11.55;7.07;;;;;;;14.29;58.98;98700.44;5081012;28;20036;-75
2022/06/16 00:41:42;;;;;;;10.75;7.28;;;;;;;14.28;59.14;98693.31;5074938;28;20024;-74
2022/06/16 00:44:38;;;;;;;11.02;6.95;;;;;;;14.29;59.07;98699.63;5075312;28;20074;-74
2022/06/16 00:47:05;;;;;;;11.35;7.05;;;;;;;14.27;59.02;98686.16;5078672;28;20063;-74
2022/06/16 00:49:30;;;;;;;12.57;7.65;;;;;;;14.26;59.01;98681.78;5084003;28;20016;-75
2022/06/16 00:52:02;;;;;;;11.02;7.00;;;;;;;14.23;59.20;98687.91;5087259;28;20027;-75
2022/06/16 00:54:33;;;;;;;11.73;7.68;;;;;;;14.19;59.30;98686.91;5087470;28;20032;-75
2022/06/16 00:57:05;;;;;;;12.25;7.50;;;;;;;14.17;59.29;98689.16;5082633;28;20073;-76
2022/06/16 00:59:31;;;;;;;12.52;7.05;;;;;;;14.15;59.38;98685.91;5082905;28;20035;-75
2022/06/16 01:01:57;;;;;;;12.30;7.32;;;;;;;14.09;59.50;98681.66;5083407;28;20016;-75
2022/06/16 01:07:12;;;;;;;12.85;7.68;;;;;;;14.02;59.70;98687.63;5089886;28;20058;-76
2022/06/16 01:09:40;;;;;;;12.10;7.93;;;;;;;13.99;60.02;98680.78;5087759;28;20032;-76
2022/06/16 01:14:56;;;;;;;;;;;;;;;13.99;59.70;98682.72;5086985;28;20066;-75
2022/06/16 01:17:24;;;;;;;13.88;7.75;;;;;;;13.97;60.00;98685.81;5077857;28;19942;-75
2022/06/16 01:19:57;;;;;;;12.30;7.35;;;;;;;13.97;59.98;98677.53;5081895;28;20078;-74
2022/06/16 01:22:44;;;;;;;13.73;7.43;;;;;;;13.95;60.35;98677.03;5082527;28;20028;-75
2022/06/16 01:25:28;;;;;;;11.10;7.10;;;;;;;13.92;60.07;98683.16;5089603;28;20120;-75
2022/06/16 01:28:17;;;;;;;12.73;7.40;;;;;;;13.92;60.06;98676.81;5085140;28;20035;-75
2022/06/16 01:30:57;;;;;;;10.55;7.20;;;;;;;13.92;60.35;98671.31;5076360;28;20074;-75
2022/06/16 01:33:48;;;;;;;14.25;7.30;;;;;;;13.90;60.21;98676.31;5089616;28;20119;-75
2022/06/16 01:36:45;;;;;;;10.70;7.10;;;;;;;13.88;60.25;98673.06;5081379;28;20031;-75
2022/06/16 01:39:17;;;;;;;11.20;7.45;;;;;;;13.84;60.19;98670.97;5081264;28;20088;-75
2022/06/16 01:41:53;;;;;;;14.65;7.85;;;;;;;13.84;60.63;98672.88;5087925;28;20020;-74
2022/06/16 01:44:27;;;;;;;14.80;7.88;;;;;;;13.80;60.52;98669.13;5084697;28;20111;-74
2022/06/16 01:47:00;;;;;;;13.07;7.70;;;;;;;13.76;60.53;98665.34;5083754;28;20024;-75
2022/06/16 01:49:32;;;;;;;12.48;7.70;;;;;;;13.77;60.93;98675.25;5083536;28;20376;-75
2022/06/16 01:52:08;;;;;;;12.30;7.78;;;;;;;13.77;60.37;98675.25;5080841;28;20052;-76
2022/06/16 01:54:43;;;;;;;12.60;8.10;;;;;;;13.76;60.89;98666.19;5085241;28;20518;-74
2022/06/16 01:57:29;;;;;;;12.32;7.80;;;;;;;13.69;60.48;98661.09;5103588;28;20060;-76
2022/06/16 02:00:22;;;;;;;12.88;8.02;;;;;;;13.68;60.86;98662.22;5084918;28;20097;-75
2022/06/16 02:02:55;;;;;;;10.93;7.85;;;;;;;13.67;61.09;98663.34;5083062;28;20047;-76
2022/06/16 02:05:35;;;;;;;13.15;7.68;;;;;;;13.66;60.76;98666.41;5079634;28;20028;-75
2022/06/16 02:08:08;;;;;;;10.45;7.35;;;;;;;13.64;60.71;98665.91;5080030;28;20027;-76
2022/06/16 02:10:40;;;;;;;14.63;7.70;;;;;;;13.63;61.15;98667.88;5066066;28;20036;-76
2022/06/16 02:13:08;;;;;;;13.05;7.97;;;;;;;13.63;60.84;98667.88;5079346;28;20060;-76
2022/06/16 02:15:36;;;;;;;14.25;7.85;;;;;;;13.66;61.58;98669.97;5083614;28;20438;-76
2022/06/16 02:18:08;;;;;;;10.82;7.05;;;;;;;13.67;61.24;98670.81;5085358;28;20028;-76
2022/06/16 02:20:42;;;;;;;12.38;7.75;;;;;;;13.66;61.31;98678.25;5083037;28;20093;-75
2022/06/16 02:23:08;;;;;;;15.55;8.27;;;;;;;13.63;61.14;98665.13;5080843;28;20039;-75
2022/06/16 02:25:34;;;;;;;12.15;8.15;;;;;;;13.62;61.53;98665.41;5082544;28;20523;-76
2022/06/16 02:28:00;;;;;;;13.55;7.82;;;;;;;13.57;61.42;98671.88;5081276;28;20032;-75
2022/06/16 02:30:31;;;;;;;12.20;8.13;;;;;;;13.54;61.46;98664.22;5083240;28;20031;-75
2022/06/16 02:33:16;;;;;;;12.23;8.02;;;;;;;13.52;61.17;98661.75;5079835;28;20024;-75
2022/06/16 02:36:04;;;;;;;12.82;7.82;;;;;;;13.49;61.66;98665.13;5085458;28;20035;-75
2022/06/16 02:38:51;;;;;;;11.43;8.02;;;;;;;13.47;61.35;98666.59;5084718;28;20038;-75
2022/06/16 02:41:26;;;;;;;12.80;8.07;;;;;;;13.48;61.76;98669.00;5081426;28;20028;-76
2022/06/16 02:44:26;;;;;;;13.90;7.78;;;;;;;13.48;61.76;98671.78;5081683;28;20463;-76
2022/06/16 02:46:58;;;;;;;12.07;8.02;;;;;;;13.49;61.78;98673.41;5081670;28;20062;-75
2022/06/16 02:49:26;;;;;;;15.88;7.82;;;;;;;13.49;62.24;98667.91;5082481;28;20020;-75
2022/06/16 02:52:08;;;;;;;11.45;8.25;;;;;;;13.50;61.52;98672.28;5078716;28;20107;-75
2022/06/16 02:54:42;;;;;;;14.80;8.48;;;;;;;13.50;61.86;98672.28;5081308;28;20547;-76
2022/06/16 02:57:23;;;;;;;12.90;8.32;;;;;;;13.52;61.84;98666.47;5079020;28;20037;-75
2022/06/16 02:59:54;;;;;;;14.05;8.13;;;;;;;13.51;61.53;98673.09;5084891;28;20028;-75
2022/06/16 03:02:22;;;;;;;12.55;8.38;;;;;;;13.47;61.76;98674.84;5080148;28;20022;-75
2022/06/16 03:04:57;;;;;;;14.30;9.50;;;;;;;13.44;61.77;98670.78;5078542;28;20643;-76
2022/06/16 03:07:23;;;;;;;16.10;9.30;;;;;;;13.43;61.63;98666.41;5079039;28;20020;-76
2022/06/16 03:09:49;;;;;;;11.88;8.73;;;;;;;13.42;61.86;98670.28;5078784;28;20032;-76
2022/06/16 03:12:15;;;;;;;15.55;9.57;;;;;;;13.44;61.59;98665.28;5077876;28;20392;-76
2022/06/16 03:14:42;;;;;;;13.48;8.88;;;;;;;13.45;61.94;98668.84;5078154;28;20044;-76
2022/06/16 03:17:09;;;;;;;12.30;8.85;;;;;;;13.45;62.36;98663.31;5082647;28;20443;-76
2022/06/16 03:19:35;;;;;;;12.30;8.70;;;;;;;13.44;61.93;98668.03;5083784;28;20025;-76
2022/06/16 03:22:01;;;;;;;11.73;7.97;;;;;;;13.47;61.85;98669.34;5083724;28;20031;-76
2022/06/16 03:24:26;;;;;;;12.20;7.68;;;;;;;13.51;62.20;98670.34;5080692;28;20028;-76
2022/06/16 03:26:52;;;;;;;11.57;7.70;;;;;;;13.50;62.25;98672.28;5081412;28;20510;-76
2022/06/16 03:29:17;;;;;;;12.18;7.50;;;;;;;13.53;62.45;98671.66;5082513;28;20023;-76
2022/06/16 03:31:43;;;;;;;12.32;7.40;;;;;;;13.54;62.25;98669.72;5078135;28;20103;-76
2022/06/16 03:34:08;;;;;;;12.23;7.43;;;;;;;13.54;62.15;98667.78;5084098;28;20036;-76
2022/06/16 03:36:35;;;;;;;11.18;7.13;;;;;;;13.56;62.28;98667.47;5082815;28;20028;-76
2022/06/16 03:39:02;;;;;;;11.75;7.13;;;;;;;13.59;61.99;98666.03;5082509;28;20025;-75
2022/06/16 03:41:28;;;;;;;10.95;6.97;;;;;;;13.61;62.29;98667.38;5080719;28;20025;-76
2022/06/16 03:43:53;;;;;;;10.65;6.97;;;;;;;13.62;62.54;98669.00;5081454;28;20021;-76
2022/06/16 03:46:19;;;;;;;10.07;7.20;;;;;;;13.60;62.37;98671.25;5081239;28;20012;-76
2022/06/16 03:48:44;;;;;;;10.60;7.40;;;;;;;13.62;62.57;98668.16;5085507;28;20108;-76
2022/06/16 03:51:10;;;;;;;13.05;7.78;;;;;;;13.64;62.46;98666.75;5085989;28;20036;-76
2022/06/16 03:53:37;;;;;;;11.30;7.53;;;;;;;13.65;62.59;98667.56;5084673;28;21650;-76
2022/06/16 03:56:04;;;;;;;10.98;7.22;;;;;;;13.69;62.62;98669.34;5080437;28;20021;-76
2022/06/16 03:58:30;;;;;;;11.80;7.50;;;;;;;13.71;62.57;98666.31;5082205;28;20016;-76
2022/06/16 04:00:56;;;;;;;10.52;7.05;;;;;;;13.76;62.82;98662.59;5079079;28;20028;-75
2022/06/16 04:06:06;;;;;;;10.27;7.00;;;;;;;13.85;62.35;98666.25;5087223;28;20097;-75
2022/06/16 04:08:32;;;;;;;12.48;7.38;;;;;;;13.86;62.58;98659.59;5084735;28;20468;-76
2022/06/16 04:10:57;;;;;;;11.02;7.15;;;;;;;13.92;62.50;98658.34;5085263;28;20414;-76
2022/06/16 04:13:23;;;;;;;11.68;7.28;;;;;;;13.95;62.31;98659.66;5082501;28;20032;-76
2022/06/16 04:15:51;;;;;;;9.65;6.78;;;;;;;13.99;62.72;98652.41;5080216;28;20107;-76
2022/06/16 04:18:20;;;;;;;11.18;7.05;;;;;;;14.03;62.41;98655.34;5078852;28;20530;-76
2022/06/16 04:20:47;;;;;;;12.33;7.40;;;;;;;14.06;62.66;98650.00;5081994;28;20020;-76
2022/06/16 04:23:12;;;;;;;13.25;7.75;;;;;;;14.12;62.75;98648.75;5087646;28;20385;-75
2022/06/16 04:25:38;;;;;;;8.85;6.75;;;;;;;14.20;62.84;98647.16;5083588;28;20028;-75
2022/06/16 04:28:06;;;;;;;13.50;7.80;;;;;;;14.27;62.60;98654.97;5083575;28;20020;-75
2022/06/16 04:30:31;;;;;;;11.90;6.95;;;;;;;14.32;62.71;98652.09;5083664;28;20023;-75
2022/06/16 04:32:58;;;;;;;9.80;6.70;;;;;;;14.31;62.72;98647.72;5085524;28;20446;-75
2022/06/16 04:35:26;;;;;;;10.15;6.55;;;;;;;14.35;62.95;98651.47;5083561;28;20032;-75
2022/06/16 04:37:52;;;;;;;10.20;6.70;;;;;;;14.41;62.85;98650.19;5084648;28;20056;-75
2022/06/16 04:40:18;;;;;;;8.88;6.25;;;;;;;14.45;62.98;98650.41;5085603;28;20829;-75
2022/06/16 04:42:43;;;;;;;11.52;6.00;;;;;;;14.51;62.92;98653.81;5085055;28;20495;-74
2022/06/16 04:45:10;;;;;;;9.40;5.70;;;;;;;14.56;62.88;98654.47;5084171;28;20122;-75
2022/06/16 04:47:39;;;;;;;10.50;5.55;;;;;;;14.62;63.14;98646.06;5080622;28;20057;-75
2022/06/16 04:50:07;;;;;;;11.07;5.88;;;;;;;14.69;63.20;98650.03;5078898;28;20036;-75
2022/06/16 04:52:32;;;;;;;6.97;4.93;;;;;;;14.78;62.99;98647.31;5077453;28;20472;-75
2022/06/16 04:54:58;;;;;;;7.85;5.30;;;;;;;14.86;63.13;98635.47;5084001;28;20070;-75
2022/06/16 04:57:24;;;;;;;7.43;5.10;;;;;;;14.97;62.75;98638.75;5085329;28;20035;-74
2022/06/16 04:59:49;;;;;;;8.85;5.53;;;;;;;15.04;62.76;98641.03;5084031;28;20016;-75
2022/06/16 05:02:14;;;;;;;8.85;5.82;;;;;;;15.11;62.67;98644.16;5080569;28;20033;-75
2022/06/16 05:04:42;;;;;;;8.05;5.07;;;;;;;15.18;62.72;98640.91;5081632;28;20139;-75
2022/06/16 05:07:08;;;;;;;8.70;5.25;;;;;;;15.27;62.71;98643.69;5077648;28;20050;-75
2022/06/16 05:09:34;;;;;;;8.30;5.13;;;;;;;15.36;62.54;98643.69;5086909;28;20040;-75
2022/06/16 05:12:00;;;;;;;10.07;5.10;;;;;;;15.43;62.39;98644.81;5088496;28;20024;-75
2022/06/16 05:14:25;;;;;;;7.32;4.57;;;;;;;15.53;62.02;98638.16;5088740;28;20128;-75
2022/06/16 05:16:51;;;;;;;8.77;5.13;;;;;;;15.62;61.81;98635.41;5088397;28;20103;-75
2022/06/16 05:19:16;;;;;;;9.10;5.63;;;;;;;15.71;62.05;98630.66;5089100;28;20050;-74
2022/06/16 05:21:42;;;;;;;9.63;5.32;;;;;;;15.83;61.46;98626.44;5088718;28;20494;-74
2022/06/16 05:24:08;;;;;;;8.80;5.88;;;;;;;15.93;61.65;98634.44;5089257;28;20073;-75
2022/06/16 05:26:33;;;;;;;11.02;6.10;;;;;;;16.01;61.59;98625.31;5089054;28;20028;-75
2022/06/16 05:28:59;;;;;;;11.15;5.80;;;;;;;16.11;61.02;98626.91;5089356;28;20028;-75
2022/06/16 05:31:24;;;;;;;10.15;5.40;;;;;;;16.21;61.05;98629.34;5069760;28;20048;-74
2022/06/16 05:33:50;;;;;;;10.65;5.63;;;;;;;16.31;61.20;98622.63;5076738;28;20028;-75
2022/06/16 05:36:18;;;;;;;7.78;5.10;;;;;;;16.41;60.71;98621.44;5087663;28;20541;-75
2022/06/16 05:38:44;;;;;;;8.88;5.47;;;;;;;16.51;60.67;98626.63;5085024;28;20515;-74
2022/06/16 05:41:13;;;;;;;10.77;5.50;;;;;;;16.60;60.57;98618.28;5084488;28;20024;-74
2022/06/16 05:43:39;;;;;;;8.20;5.03;;;;;;;16.72;60.45;98616.75;5083166;28;20059;-75
2022/06/16 05:46:05;;;;;;;11.27;5.95;;;;;;;16.82;60.37;98619.97;5080744;28;20052;-75
2022/06/16 05:48:32;;;;;;;9.43;5.53;;;;;;;16.94;60.15;98616.47;5086101;28;20118;-75
2022/06/16 05:51:06;;;;;;;11.15;4.97;;;;;;;17.07;60.23;98622.13;5085686;28;20067;-75
2022/06/16 05:53:32;;;;;;;7.85;5.13;;;;;;;17.20;59.68;98620.25;5084198;28;20085;-75
2022/06/16 05:55:57;;;;;;;8.38;5.35;;;;;;;17.30;59.84;98613.53;5080431;28;20033;-75
2022/06/16 05:58:23;;;;;;;9.52;5.53;;;;;;;17.40;59.52;98610.31;5084775;28;20081;-74
2022/06/16 06:00:49;;;;;;;8.52;4.97;;;;;;;17.53;59.53;98613.97;5083234;28;20027;-74
2022/06/16 06:03:15;;;;;;;7.88;4.35;;;;;;;17.64;59.23;98617.16;5084044;28;20103;-74
2022/06/16 06:05:41;;;;;;;7.88;4.40;;;;;;;17.79;59.87;98618.50;5078446;28;20487;-74
2022/06/16 06:16:25;;;;;;;8.13;4.38;;;;;;;18.30;58.67;98615.53;5079857;28;20105;-75
2022/06/16 06:18:51;;;;;;;9.07;4.45;;;;;;;18.40;58.53;98615.09;5078232;28;20020;-75
2022/06/16 06:21:17;;;;;;;7.78;4.90;;;;;;;18.51;57.96;98603.56;5075210;28;20468;-72
2022/06/16 06:23:42;;;;;;;7.75;4.60;;;;;;;18.63;58.06;98608.28;5083111;28;20061;-72
2022/06/16 06:26:12;;;;;;;8.88;4.70;;;;;;;18.73;57.93;98605.84;5078796;28;20028;-72
2022/06/16 06:28:37;;;;;;;6.82;4.25;;;;;;;18.87;57.89;98599.16;5085477;28;20020;-73
2022/06/16 06:31:03;;;;;;;9.55;4.75;;;;;;;19.01;57.66;98596.03;5085613;28;20076;-73
2022/06/16 06:33:28;;;;;;;9.77;4.93;;;;;;;19.13;57.67;98597.97;5083571;28;20130;-73
2022/06/16 06:35:56;;;;;;;6.18;4.22;;;;;;;19.26;57.51;98598.75;5081938;28;20028;-72
2022/06/16 06:38:22;;;;;;;7.65;4.40;;;;;;;19.39;57.20;98607.88;5078934;28;20024;-72
2022/06/16 06:40:47;;;;;;;7.05;4.10;;;;;;;19.47;56.92;98598.59;5079435;28;20526;-72
2022/06/16 06:43:13;;;;;;;6.28;4.43;;;;;;;19.56;56.57;98596.47;5084277;28;20039;-73
2022/06/16 06:45:38;;;;;;;4.75;3.63;;;;;;;19.66;56.42;98597.16;5086460;28;20020;-73
2022/06/16 06:48:04;;;;;;;7.30;3.75;;;;;;;19.76;55.70;98596.66;5082730;28;20028;-73
2022/06/16 06:50:35;;;;;;;7.75;3.45;;;;;;;19.86;55.90;98598.91;5084569;28;20016;-73
2022/06/16 06:53:02;;;;;;;5.53;3.60;;;;;;;19.96;55.38;98594.84;5080705;28;20031;-73
2022/06/16 06:55:28;;;;;;;7.90;3.50;;;;;;;20.03;55.13;98602.56;5083313;28;20024;-74
2022/06/16 06:57:55;;;;;;;5.45;3.45;;;;;;;20.13;55.40;98599.28;5079859;28;20020;-75
2022/06/16 07:00:23;;;;;;;8.32;3.50;;;;;;;20.24;55.13;98596.75;5082772;28;20065;-74
2022/06/16 07:02:50;;;;;;;4.47;3.20;;;;;;;20.33;55.01;98588.22;5080014;28;20012;-75
2022/06/16 07:05:16;;;;;;;5.45;3.60;;;;;;;20.41;55.07;98580.84;5076505;28;20193;-73
2022/06/16 07:07:43;;;;;;;6.22;3.35;;;;;;;20.52;54.61;98584.72;5069264;28;20537;-73
2022/06/16 07:10:09;;;;;;;4.68;3.00;;;;;;;20.59;54.40;98586.88;5069159;28;20028;-74
2022/06/16 07:12:35;;;;;;;4.68;3.30;;;;;;;20.66;54.14;98589.84;5070263;28;20107;-73
2022/06/16 07:15:01;;;;;;;6.32;3.30;;;;;;;20.74;54.06;98588.03;5078928;28;20046;-73
2022/06/16 07:17:27;;;;;;;4.72;3.10;;;;;;;20.82;53.88;98599.03;5088949;28;20020;-73
2022/06/16 07:19:54;;;;;;;7.55;3.38;;;;;;;20.90;53.89;98580.47;5070297;28;20025;-74
2022/06/16 07:22:20;;;;;;;4.00;2.90;;;;;;;20.97;53.56;98585.44;5069171;28;20060;-73
2022/06/16 07:24:48;;;;;;;4.05;3.25;;;;;;;21.03;53.38;98574.78;5070524;28;20100;-73
2022/06/16 07:27:16;;;;;;;5.68;2.90;;;;;;;21.11;53.44;98580.16;5070044;28;20029;-76
2022/06/16 07:29:41;;;;;;;5.93;3.22;;;;;;;21.20;53.16;98576.38;5074438;28;20275;-78
2022/06/16 07:32:07;;;;;;;7.00;4.78;;;;;;;21.29;52.93;98568.59;5068358;28;20024;-75
2022/06/16 07:34:33;;;;;;;5.80;4.10;;;;;;;21.36;52.85;98570.72;5079389;28;20093;-74
2022/06/16 07:36:58;;;;;;;6.70;3.08;;;;;;;21.47;52.83;98568.97;5058998;28;20035;-74
2022/06/16 07:39:23;;;;;;;5.50;3.20;;;;;;;21.59;53.08;98570.81;5056691;28;20407;-75
2022/06/16 07:41:49;;;;;;;8.32;4.05;;;;;;;21.71;52.66;98570.69;5060267;28;20025;-73
2022/06/16 07:44:16;;;;;;;4.82;3.20;;;;;;;21.85;52.69;98567.34;5065530;28;20025;-73
2022/06/16 07:46:43;;;;;;;6.90;3.70;;;;;;;21.97;52.20;98577.53;5065524;28;20073;-75
2022/06/16 07:49:13;;;;;;;5.50;3.40;;;;;;;22.07;51.90;98581.72;5067304;28;20021;-74
2022/06/16 07:51:42;;;;;;;4.97;3.38;;;;;;;22.16;51.21;98576.69;5064268;28;20032;-75
2022/06/16 07:54:10;;;;;;;10.68;3.47;;;;;;;22.24;51.39;98574.81;5075950;28;20484;-73
2022/06/16 07:56:36;;;;;;;6.97;3.95;;;;;;;22.32;51.17;98578.56;5059502;28;20672;-73
2022/06/16 07:59:02;;;;;;;8.38;4.00;;;;;;;22.39;51.26;98573.13;5051746;28;20020;-73
2022/06/16 08:01:29;;;;;;;6.95;3.42;;;;;;;22.49;50.92;98574.50;5068585;28;20028;-73
2022/06/16 08:03:55;;;;;;;7.82;4.97;;;;;;;22.55;50.82;98573.00;5063357;28;20077;-73
2022/06/16 08:06:27;;;;;;;4.95;3.42;;;;;;;22.65;50.66;98573.53;5063260;28;20021;-72
2022/06/16 08:08:56;;;;;;;6.80;3.92;;;;;;;22.70;50.73;98568.44;5065729;28;20031;-74
2022/06/16 08:14:05;;;;;;;6.88;3.80;;;;;;;22.86;50.60;98568.28;5064097;28;20129;-74
2022/06/16 08:16:33;;;;;;;5.90;3.30;;;;;;;22.93;50.07;98567.56;5061659;28;20028;-72
2022/06/16 08:18:59;;;;;;;5.63;3.60;;;;;;;22.99;50.09;98568.88;5054789;28;20040;-72
2022/06/16 08:21:25;;;;;;;7.28;3.15;;;;;;;23.08;49.79;98565.00;5053786;28;20024;-71
2022/06/16 08:23:52;;;;;;;5.88;3.47;;;;;;;23.13;49.47;98567.47;5059555;28;20028;-72
2022/06/16 08:26:19;;;;;;;6.40;3.28;;;;;;;23.17;49.77;98571.91;5062898;28;20020;-74
2022/06/16 08:28:44;;;;;;;8.95;3.65;;;;;;;23.22;49.60;98575.56;5062585;28;20484;-74
2022/06/16 08:31:10;;;;;;;6.15;3.67;;;;;;;23.22;49.40;98567.19;5062014;28;20021;-74
2022/06/16 08:33:36;;;;;;;6.20;3.60;;;;;;;23.25;49.28;98566.47;5062624;28;20497;-74
2022/06/16 08:36:03;;;;;;;6.53;3.47;;;;;;;23.29;48.95;98558.91;5064027;28;20464;-77
2022/06/16 08:38:28;;;;;;;4.85;3.42;;;;;;;23.33;49.04;98565.38;5061545;28;20406;-74
2022/06/16 08:41:13;;;;;;;5.20;3.58;;;;;;;23.36;48.82;98556.22;5051986;28;20531;-73
2022/06/16 08:43:50;;;;;;;5.93;3.58;;;;;;;23.44;49.29;98557.09;5055532;28;20029;-74
2022/06/16 08:46:17;;;;;;;7.95;3.40;;;;;;;23.59;49.49;98546.88;5062151;28;20063;-74
2022/06/16 08:49:04;;;;;;;5.68;3.10;;;;;;;23.77;49.49;98555.47;5063698;28;20040;-74
2022/06/16 08:51:29;;;;;;;5.63;3.40;;;;;;;23.94;49.57;98554.88;5078040;28;20031;-72
2022/06/16 08:53:58;;;;;;;6.07;3.22;;;;;;;24.08;48.78;98551.44;5076093;28;20036;-76
2022/06/16 08:56:40;;;;;;;7.90;3.33;;;;;;;24.19;48.21;98553.56;5086621;28;20035;-69
2022/06/16 08:59:41;;;;;;;6.38;3.70;;;;;;;24.29;47.68;98554.84;5083935;28;20496;-72
2022/06/16 09:02:18;;;;;;;7.50;3.03;;;;;;;24.35;47.11;98556.09;5086526;28;20021;-73
2022/06/16 09:04:58;;;;;;;5.18;3.22;;;;;;;24.47;46.95;98572.59;5086789;28;20059;-78
2022/06/16 09:07:24;;;;;;;5.30;2.92;;;;;;;24.58;46.18;98560.66;5068102;28;20024;-80
2022/06/16 09:10:16;;;;;;;4.40;3.35;;;;;;;24.75;46.77;98565.66;5085384;28;20039;-80
2022/06/16 09:13:00;;;;;;;4.57;2.83;;;;;;;24.92;45.16;98574.56;5080181;28;20048;-81
2022/06/16 09:15:41;;;;;;;4.65;2.80;;;;;;;25.03;45.43;98569.84;5087968;28;20034;-78
2022/06/16 09:18:13;;;;;;;3.33;2.97;;;;;;;25.18;44.72;98565.09;5084315;28;20141;-76
2022/06/16 09:20:45;;;;;;;3.88;2.50;;;;;;;25.34;44.24;98555.56;5083855;28;20076;-75
2022/06/16 09:23:14;;;;;;;4.07;2.40;;;;;;;25.49;44.11;98550.84;5076852;28;20052;-72
2022/06/16 09:26:02;;;;;;;3.53;2.35;;;;;;;25.63;43.76;98550.09;5075702;28;20062;-71
2022/06/16 09:28:40;;;;;;;4.00;2.58;;;;;;;25.67;42.99;98548.09;5079834;28;20098;-70
2022/06/16 09:31:13;;;;;;;6.05;2.35;;;;;;;25.68;42.96;98541.28;5074169;28;20401;-70
2022/06/16 09:33:46;;;;;;;2.60;2.38;;;;;;;25.66;42.40;98552.94;5090011;28;20388;-70
2022/06/16 09:36:21;;;;;;;3.92;2.38;;;;;;;25.67;43.05;98543.31;5076996;28;20051;-72
2022/06/16 09:39:12;;;;;;;5.97;2.55;;;;;;;25.73;42.76;98543.72;5079851;28;20029;-70
2022/06/16 09:44:50;;;;;;;3.42;2.50;;;;;;;25.76;42.84;98548.53;5086071;28;20055;-78
2022/06/16 09:47:22;;;;;;;4.07;2.60;;;;;;;25.71;42.86;98557.34;5091286;28;20030;-70
2022/06/16 09:49:54;;;;;;;6.43;2.78;;;;;;;25.60;42.10;98556.50;5088307;28;20101;-70
2022/06/16 09:52:54;;;;;;;5.35;2.65;;;;;;;25.45;42.37;98570.50;5084285;28;20405;-69
2022/06/16 09:55:35;;;;;;;6.22;2.50;;;;;;;25.37;42.57;98566.81;5075965;28;20501;-69
2022/06/16 09:58:13;;;;;;;3.28;2.60;;;;;;;25.34;42.37;98555.56;5084352;28;20028;-71
2022/06/16 10:00:39;;;;;;;2.83;2.25;;;;;;;25.41;43.08;98561.22;5077111;28;20020;-70
2022/06/16 10:03:33;;;;;;;3.70;2.60;;;;;;;25.47;42.77;98556.88;5089416;28;20066;-71
2022/06/16 10:06:12;;;;;;;5.50;2.80;;;;;;;25.54;42.92;98554.06;5086032;28;20030;-75
2022/06/16 10:08:52;;;;;;;5.05;2.88;;;;;;;25.63;42.79;98538.84;5084719;28;20020;-72
2022/06/16 10:11:56;;;;;;;3.90;2.40;;;;;;;25.83;42.45;98545.75;5079893;28;20025;-73
2022/06/16 10:14:33;;;;;;;3.00;2.00;;;;;;;26.02;41.70;98535.34;5076249;28;20044;-72
2022/06/16 10:17:05;;;;;;;4.47;2.15;;;;;;;26.22;41.96;98538.59;5084004;28;20056;-71
2022/06/16 10:19:34;;;;;;;4.43;2.47;;;;;;;26.41;40.62;98537.41;5079160;28;20027;-74
2022/06/16 10:22:01;;;;;;;3.17;2.30;;;;;;;26.68;39.71;98539.81;5083591;28;20381;-75
2022/06/16 10:24:35;;;;;;;3.38;2.38;;;;;;;26.89;39.83;98535.38;5081826;28;20027;-73
2022/06/16 10:27:01;;;;;;;5.28;2.50;;;;;;;27.12;40.16;98534.09;5079651;28;20024;-77
2022/06/16 10:29:32;;;;;;;3.05;2.20;;;;;;;27.36;39.29;98528.81;5083657;28;20400;-74
2022/06/16 10:32:00;;;;;;;3.78;2.42;;;;;;;27.61;39.10;98532.34;5090297;28;20103;-75
2022/06/16 10:34:28;;;;;;;4.40;2.47;;;;;;;27.69;39.12;98537.94;5083133;28;20036;-75
2022/06/16 10:37:16;;;;;;;3.08;2.03;;;;;;;27.69;37.66;98538.75;5087841;28;20032;-73
2022/06/16 10:39:47;;;;;;;2.45;2.05;;;;;;;27.68;38.50;98527.88;5073560;28;20024;-72
2022/06/16 10:42:22;;;;;;;2.92;2.10;;;;;;;27.85;38.55;98541.06;5083360;28;20082;-72
2022/06/16 10:44:53;;;;;;;3.08;1.90;;;;;;;27.99;37.09;98528.91;5084639;28;20035;-72
2022/06/16 10:47:28;;;;;;;6.07;2.63;;;;;;;28.03;36.34;98543.78;5101857;28;20074;-73
2022/06/16 10:49:54;;;;;;;3.45;2.00;;;;;;;28.01;35.43;98536.94;5089758;28;20317;-74
2022/06/16 10:52:28;;;;;;;4.07;2.22;;;;;;;27.98;36.26;98532.94;5089259;28;20590;-74
2022/06/16 10:55:08;;;;;;;7.40;2.65;;;;;;;28.01;36.35;98540.56;5087575;28;20399;-74
2022/06/16 10:57:42;;;;;;;4.28;2.45;;;;;;;28.01;37.15;98531.28;5089450;28;20047;-74
2022/06/16 11:00:23;;;;;;;4.45;2.15;;;;;;;28.11;37.40;98533.25;5091626;28;20036;-74
2022/06/16 11:03:05;;;;;;;4.20;2.47;;;;;;;28.20;37.67;98536.44;5091106;28;20110;-73
2022/06/16 11:05:36;;;;;;;6.18;2.50;;;;;;;28.29;37.41;98538.78;5081583;28;20648;-74
2022/06/16 11:08:11;;;;;;;3.47;2.20;;;;;;;28.35;37.31;98541.94;5089146;28;20027;-74
2022/06/16 11:10:40;;;;;;;2.70;2.28;;;;;;;28.38;37.49;98532.66;5089743;28;20035;-74
2022/06/16 11:13:13;;;;;;;4.40;2.50;;;;;;;28.38;37.32;98527.84;5086731;28;20140;-73
2022/06/16 11:15:46;;;;;;;4.55;2.33;;;;;;;28.48;37.37;98528.16;5088851;28;20560;-74
2022/06/16 11:18:15;;;;;;;3.55;2.30;;;;;;;28.58;37.18;98520.81;5090786;28;20545;-74
2022/06/16 11:20:44;;;;;;;4.88;2.25;;;;;;;28.67;37.28;98529.59;5083715;28;20081;-74
2022/06/16 11:23:44;;;;;;;3.00;2.20;;;;;;;28.76;37.09;98523.50;5081441;28;20052;-73
2022/06/16 11:26:31;;;;;;;4.68;2.20;;;;;;;28.79;36.67;98523.44;5070117;28;20056;-73
2022/06/16 11:29:19;;;;;;;3.03;2.10;;;;;;;28.76;35.81;98524.28;5078466;28;20021;-74
2022/06/16 11:31:48;;;;;;;3.85;2.10;;;;;;;28.78;35.68;98516.19;5090673;28;20074;-73
2022/06/16 11:34:16;;;;;;;;;;;;;;;28.78;35.73;98507.72;5084543;28;20732;-74
2022/06/16 11:36:50;;;;;;;3.05;2.17;;;;;;;28.87;35.20;98514.91;5087972;28;19920;-74
2022/06/16 11:39:53;;;;;;;3.13;2.22;;;;;;;28.92;35.34;98503.16;5074317;28;20035;-74
2022/06/16 11:42:18;;;;;;;2.78;2.45;;;;;;;29.06;35.13;98505.84;5088763;28;20032;-74
2022/06/16 11:45:03;;;;;;;2.55;2.20;;;;;;;29.25;35.72;98500.75;5091100;28;20034;-74
2022/06/16 11:48:17;;;;;;;3.17;2.17;;;;;;;29.60;36.03;98497.94;5091497;28;20031;-74
2022/06/16 11:50:49;;;;;;;5.57;2.00;;;;;;;29.76;34.58;98486.78;5080991;28;20044;-74
2022/06/16 11:53:38;;;;;;;5.03;2.30;;;;;;;29.91;34.34;98483.75;5099844;28;20040;-77
2022/06/16 11:56:18;;;;;;;;;;;;;;;30.02;35.16;98483.59;5091086;28;20043;-80
2022/06/16 11:59:07;;;;;;;5.82;2.65;;;;;;;29.92;35.37;98477.69;5079790;28;20441;-79
2022/06/16 12:01:46;;;;;;;5.05;2.63;;;;;;;29.70;35.13;98478.00;5082344;28;20028;-77
2022/06/16 12:04:38;;;;;;;5.22;2.50;;;;;;;29.51;35.12;98482.28;5091315;28;20028;-77
2022/06/16 12:07:17;;;;;;;4.93;2.35;;;;;;;29.46;35.47;98482.78;5078119;28;20041;-76
2022/06/16 12:09:47;;;;;;;4.82;2.45;;;;;;;29.34;35.47;98489.75;5079781;28;20396;-78
2022/06/16 12:12:36;;;;;;;3.90;2.50;;;;;;;29.14;35.47;98486.00;5081196;28;20118;-77